createdAt,value
2019-01-17T00:27:32.372Z,-1.34
2019-01-17T00:42:37.329Z,-1.76
2019-01-17T00:57:45.779Z,-1.94
2019-01-17T01:13:03.017Z,-1.93
2019-01-17T01:43:47.865Z,-1.22
2019-01-17T01:58:50.428Z,-0.85
2019-01-17T02:13:54.772Z,-0.98
2019-01-17T02:28:58.193Z,-0.68
2019-01-17T02:44:00.803Z,-0.61
2019-01-17T02:59:04.817Z,-0.84
2019-01-17T03:14:07.485Z,-2.06
2019-01-17T03:29:10.070Z,-2.27
2019-01-17T03:44:13.654Z,-2.48
2019-01-17T03:59:16.222Z,-2.63
2019-01-17T04:14:18.779Z,-2.31
2019-01-17T04:29:26.684Z,-2.30
2019-01-17T04:44:29.526Z,-2.91
2019-01-17T04:59:32.087Z,-3.34
2019-01-17T05:14:35.551Z,-3.38
2019-01-17T05:29:38.889Z,-3.61
2019-01-17T05:44:41.682Z,-3.74
2019-01-17T05:59:44.553Z,-3.45
2019-01-17T06:14:50.249Z,-2.85
2019-01-17T06:29:52.821Z,-1.07
2019-01-17T06:44:55.374Z,6.23
2019-01-17T06:59:57.930Z,7.87
2019-01-17T07:15:00.497Z,10.25
2019-01-17T07:30:05.688Z,10.68
2019-01-17T07:45:12.832Z,10.81
2019-01-17T08:00:18.802Z,12.07
2019-01-17T08:15:22.901Z,13.84
2019-01-17T08:30:26.524Z,13.72
2019-01-17T08:45:29.098Z,13.54
2019-01-17T09:00:32.652Z,12.63
2019-01-17T09:15:35.253Z,11.89
2019-01-17T09:30:37.827Z,14.41
2019-01-17T09:45:44.608Z,14.65
2019-01-17T10:00:47.196Z,14.88
2019-01-17T10:15:58.013Z,14.43
2019-01-17T10:31:07.598Z,14.91
2019-01-17T10:46:32.082Z,14.48
2019-01-17T11:17:30.887Z,13.29
2019-01-17T11:32:43.931Z,12.67
2019-01-17T11:48:08.151Z,11.78
2019-01-17T12:03:23.479Z,10.71
2019-01-17T12:18:26.234Z,10.45
2019-01-17T12:33:29.049Z,10.44
2019-01-17T12:48:31.664Z,11.00
2019-01-17T13:03:34.335Z,9.58
2019-01-17T13:18:36.953Z,9.25
2019-01-17T13:33:39.765Z,5.84
2019-01-17T13:48:43.890Z,3.70
2019-01-17T14:03:47.867Z,2.66
2019-01-17T14:18:51.989Z,2.13
2019-01-17T14:33:57.614Z,2.08
2019-01-17T14:49:04.748Z,2.01
2019-01-17T15:04:07.406Z,1.68
2019-01-17T15:19:10.000Z,1.44
2019-01-17T15:34:12.604Z,0.76
2019-01-17T15:49:17.699Z,0.64
2019-01-17T16:04:20.621Z,0.44
2019-01-17T16:19:23.189Z,0.07
2019-01-17T16:34:56.273Z,0.06
2019-01-17T16:50:33.282Z,0.18
2019-01-17T17:06:06.389Z,-0.03
2019-01-17T17:21:39.353Z,-0.02
2019-01-17T17:37:12.355Z,-0.52
2019-01-17T17:52:45.399Z,-0.51
2019-01-17T18:08:18.375Z,-0.47
2019-01-17T18:23:51.645Z,-0.65
2019-01-17T18:39:24.725Z,-0.58
2019-01-17T18:54:57.593Z,-0.60
2019-01-17T19:10:33.759Z,-0.94
2019-01-17T19:26:07.288Z,-1.06
2019-01-17T19:41:39.960Z,-1.16
2019-01-17T19:57:12.751Z,-1.07
2019-01-17T20:12:45.717Z,-1.19
2019-01-17T20:28:18.714Z,-1.32
2019-01-17T20:43:51.883Z,-1.70
2019-01-17T20:59:25.171Z,-1.55
2019-01-17T21:14:58.219Z,-1.68
2019-01-17T21:30:36.261Z,-1.76
2019-01-17T21:46:09.301Z,-1.61
2019-01-17T22:01:41.986Z,-1.99
2019-01-17T22:17:15.434Z,-1.93
2019-01-17T22:32:48.197Z,-1.93
2019-01-17T22:48:22.164Z,-2.27
2019-01-17T23:03:56.810Z,-2.62
2019-01-17T23:19:30.347Z,-2.38
2019-01-17T23:35:03.369Z,-2.50
2019-01-17T23:50:36.311Z,-2.65
